createdAt,value
2023-03-04T00:08:13.870Z,-1.02
2023-03-04T00:16:36.977Z,-1.02
2023-03-04T00:25:00.177Z,-0.99
2023-03-04T00:33:23.316Z,-0.96
2023-03-04T00:41:46.908Z,-0.92
2023-03-04T00:50:10.752Z,-0.91
2023-03-04T00:58:33.852Z,-0.94
2023-03-04T01:06:57.184Z,-0.94
2023-03-04T01:15:20.816Z,-0.95
2023-03-04T01:23:44.269Z,-0.95
2023-03-04T01:32:07.562Z,-0.97
2023-03-04T01:40:31.574Z,-0.95
2023-03-04T01:48:55.141Z,-0.97
2023-03-04T01:57:22.298Z,-0.95
2023-03-04T02:05:49.354Z,-0.95
2023-03-04T02:14:14.014Z,-0.92
2023-03-04T02:22:44.570Z,-0.91
2023-03-04T02:31:10.811Z,-0.89
2023-03-04T02:39:40.078Z,-0.88
2023-03-04T02:48:04.036Z,-0.86
2023-03-04T02:56:27.232Z,-0.86
2023-03-04T03:04:50.471Z,-0.82
2023-03-04T03:13:14.777Z,-0.81
2023-03-04T03:21:38.070Z,-0.79
2023-03-04T03:30:01.143Z,-0.78
2023-03-04T03:38:24.490Z,-0.73
2023-03-04T03:46:47.628Z,-0.70
2023-03-04T03:55:11.190Z,-0.68
2023-03-04T04:03:34.203Z,-0.67
2023-03-04T04:11:57.550Z,-0.62
2023-03-04T04:20:20.751Z,-0.58
2023-03-04T04:28:43.803Z,-0.53
2023-03-04T04:37:06.823Z,-0.50
2023-03-04T04:45:30.007Z,-0.44
2023-03-04T04:53:53.129Z,-0.40
2023-03-04T05:02:16.457Z,-0.34
2023-03-04T05:10:39.452Z,-0.29
2023-03-04T05:19:02.484Z,-0.22
2023-03-04T05:27:25.727Z,-0.19
2023-03-04T05:35:49.358Z,-0.15
2023-03-04T05:44:12.835Z,-0.08
2023-03-04T05:52:35.976Z,-0.04
2023-03-04T06:01:03.124Z,0.03
2023-03-04T06:09:26.807Z,0.06
2023-03-04T06:17:50.425Z,0.10
2023-03-04T06:26:15.745Z,0.12
2023-03-04T06:34:39.116Z,0.18
2023-03-04T06:43:02.167Z,0.22
2023-03-04T06:51:25.994Z,0.20
2023-03-04T06:59:49.132Z,0.21
2023-03-04T07:08:12.373Z,0.22
2023-03-04T07:16:35.646Z,0.26
2023-03-04T07:24:58.828Z,0.27
2023-03-04T07:33:21.896Z,0.27
2023-03-04T07:41:45.017Z,0.26
2023-03-04T07:50:10.219Z,0.26
2023-03-04T07:58:33.383Z,0.29
2023-03-04T08:06:56.490Z,0.32
2023-03-04T08:15:19.651Z,0.37
2023-03-04T08:23:43.452Z,0.41
2023-03-04T08:32:06.627Z,0.48
2023-03-04T08:40:31.136Z,0.52
2023-03-04T08:48:54.476Z,0.55
2023-03-04T08:57:17.657Z,0.61
2023-03-04T09:05:41.042Z,0.64
2023-03-04T09:14:04.196Z,0.66
2023-03-04T09:22:27.663Z,0.67
2023-03-04T09:30:50.862Z,0.71
2023-03-04T09:39:14.160Z,0.75
2023-03-04T09:47:37.960Z,0.81
2023-03-04T09:56:03.724Z,0.88
2023-03-04T10:04:56.445Z,0.97
2023-03-04T10:13:36.972Z,1.04
2023-03-04T10:22:01.038Z,1.08
2023-03-04T10:30:45.490Z,1.13
2023-03-04T10:39:18.678Z,1.16
2023-03-04T10:47:52.629Z,1.13
2023-03-04T10:56:34.540Z,1.18
2023-03-04T11:05:12.559Z,1.20
2023-03-04T11:13:35.646Z,1.25
2023-03-04T11:22:00.210Z,1.27
2023-03-04T11:30:34.449Z,1.33
2023-03-04T11:38:58.460Z,1.36
2023-03-04T11:47:46.734Z,1.45
2023-03-04T11:56:34.808Z,1.49
2023-03-04T12:05:18.630Z,1.55
2023-03-04T12:13:53.798Z,1.60
2023-03-04T12:22:44.381Z,1.69
2023-03-04T12:31:29.206Z,1.74
2023-03-04T12:40:29.729Z,1.79
2023-03-04T12:49:14.622Z,1.84
2023-03-04T12:57:38.492Z,1.72
2023-03-04T13:06:24.558Z,1.57
2023-03-04T13:15:07.846Z,1.52
2023-03-04T13:23:32.083Z,1.58
2023-03-04T13:32:02.097Z,1.67
2023-03-04T13:40:34.460Z,1.76
2023-03-04T13:48:57.494Z,1.86
2023-03-04T13:57:21.286Z,1.92
2023-03-04T14:05:44.764Z,1.73
2023-03-04T14:14:13.247Z,1.44
2023-03-04T14:22:40.889Z,1.28
2023-03-04T14:31:04.907Z,1.31
2023-03-04T14:39:31.295Z,1.41
2023-03-04T14:47:59.394Z,1.47
2023-03-04T15:04:19.015Z,1.53
2023-03-04T15:12:50.814Z,1.46
2023-03-04T15:21:25.968Z,1.36
2023-03-04T15:29:49.099Z,1.21
2023-03-04T15:38:12.890Z,1.10
2023-03-04T15:46:36.101Z,1.06
2023-03-04T15:54:59.233Z,0.98
2023-03-04T16:03:22.653Z,0.77
2023-03-04T16:11:47.892Z,0.58
2023-03-04T16:20:13.453Z,0.50
2023-03-04T16:28:36.667Z,0.45
2023-03-04T16:37:04.498Z,0.43
2023-03-04T16:45:30.377Z,0.37
2023-03-04T16:53:56.755Z,0.15
2023-03-04T17:02:22.524Z,-0.08
2023-03-04T17:10:45.584Z,-0.22
2023-03-04T17:19:08.637Z,-0.37
2023-03-04T17:27:32.050Z,-0.46
2023-03-04T17:35:56.987Z,-0.54
2023-03-04T17:44:20.143Z,-0.64
2023-03-04T17:52:43.244Z,-0.74
2023-03-04T18:01:19.427Z,-0.87
2023-03-04T18:09:44.512Z,-0.95
2023-03-04T18:18:07.762Z,-1.01
2023-03-04T18:26:30.818Z,-1.12
2023-03-04T18:34:53.944Z,-1.18
2023-03-04T18:43:17.050Z,-1.25
2023-03-04T18:51:40.447Z,-1.32
2023-03-04T19:00:05.995Z,-1.40
2023-03-04T19:08:29.555Z,-1.48
2023-03-04T19:16:52.637Z,-1.55
2023-03-04T19:25:15.876Z,-1.65
2023-03-04T19:33:41.292Z,-1.77
2023-03-04T19:42:04.851Z,-1.87
2023-03-04T19:50:27.910Z,-1.98
2023-03-04T19:58:54.429Z,-2.06
2023-03-04T20:07:17.550Z,-2.14
2023-03-04T20:15:43.882Z,-2.22
2023-03-04T20:24:07.911Z,-2.31
2023-03-04T20:32:30.972Z,-2.39
2023-03-04T20:40:55.030Z,-2.48
2023-03-04T20:49:24.309Z,-2.61
2023-03-04T20:57:49.767Z,-2.76
2023-03-04T21:06:13.388Z,-2.87
2023-03-04T21:14:36.467Z,-2.97
2023-03-04T21:22:59.528Z,-3.08
2023-03-04T21:31:29.688Z,-3.24
2023-03-04T21:39:56.074Z,-3.40
2023-03-04T21:48:19.109Z,-3.53
2023-03-04T21:56:42.643Z,-3.64
2023-03-04T22:05:05.882Z,-3.73
2023-03-04T22:13:31.282Z,-3.81
2023-03-04T22:21:54.699Z,-3.88
2023-03-04T22:30:18.537Z,-3.98
2023-03-04T22:38:41.809Z,-4.12
2023-03-04T22:47:05.040Z,-4.25
2023-03-04T22:55:29.890Z,-4.38
2023-03-04T23:03:52.931Z,-4.49
2023-03-04T23:12:16.255Z,-4.59
2023-03-04T23:20:43.460Z,-4.69
2023-03-04T23:29:09.538Z,-4.78
2023-03-04T23:37:33.210Z,-4.85
2023-03-04T23:45:58.115Z,-4.93
2023-03-04T23:54:21.244Z,-4.99
